Time;durP1;ratioP1;P1;durP2;ratioP2;P2;SDS_P1;SDS_P2;PMS_P1;PMS_P2;Temp;Humidity;BMP_temperature;BMP_pressure;BME280_temperature;BME280_humidity;BME280_pressure;Samples;Min_cycle;Max_cycle;Signal;HPM_P1;HPM_P2
2024/02/13 00:03:47;;;;;;;17.10;11.50;;;;;;;5.17;82.82;98103.95;226609;1275;22559;-77
2024/02/13 00:08:51;;;;;;;17.40;11.00;;;;;;;5.11;82.73;98104.88;226674;1275;22612;-76
2024/02/13 00:13:53;;;;;;;15.90;10.70;;;;;;;5.09;83.22;98105.99;226717;1271;22658;-76
2024/02/13 00:19:01;;;;;;;17.60;9.90;;;;;;;5.08;83.05;98111.89;226691;1269;22535;-77
2024/02/13 00:24:04;;;;;;;17.00;10.30;;;;;;;5.03;83.14;98117.97;226742;1271;24261;-77
2024/02/13 00:29:06;;;;;;;14.70;10.00;;;;;;;4.96;83.30;98127.19;226632;1273;22549;-77
2024/02/13 00:34:08;;;;;;;17.00;10.20;;;;;;;4.89;83.26;98136.30;226660;1274;23226;-77
2024/02/13 00:39:11;;;;;;;13.90;8.90;;;;;;;4.83;83.25;98140.50;226629;1273;22471;-77
2024/02/13 00:44:13;;;;;;;12.00;8.30;;;;;;;4.78;83.38;98144.65;226683;1274;22536;-78
2024/02/13 00:49:15;;;;;;;13.20;8.50;;;;;;;4.75;83.46;98154.05;226676;1273;22553;-77
2024/02/13 00:54:17;;;;;;;13.40;8.30;;;;;;;4.76;84.17;98162.16;226786;1268;22582;-77
2024/02/13 00:59:20;;;;;;;10.20;7.90;;;;;;;4.75;84.01;98170.11;226735;1271;22550;-77
2024/02/13 01:04:22;;;;;;;14.60;8.20;;;;;;;4.73;84.19;98172.79;226771;1271;25288;-77
2024/02/13 01:09:25;;;;;;;10.50;8.30;;;;;;;4.70;83.94;98174.32;226511;1274;24219;-76
2024/02/13 01:14:27;;;;;;;12.60;8.60;;;;;;;4.66;83.97;98178.63;226652;1274;22547;-76
2024/02/13 01:19:29;;;;;;;11.70;7.80;;;;;;;4.60;84.01;98186.91;226613;1274;22563;-77
2024/02/13 01:24:32;;;;;;;12.80;8.60;;;;;;;4.55;84.32;98195.13;226650;1274;25027;-77
2024/02/13 01:29:35;;;;;;;13.20;8.80;;;;;;;4.48;84.32;98199.34;226666;1271;22547;-76
2024/02/13 01:34:37;;;;;;;12.60;8.20;;;;;;;4.41;84.39;98205.73;226672;1274;22554;-76
2024/02/13 01:39:40;;;;;;;13.90;9.30;;;;;;;4.35;84.42;98208.10;226739;1271;22538;-76
2024/02/13 01:44:42;;;;;;;13.70;9.10;;;;;;;4.30;84.37;98215.78;226761;1272;24292;-76
2024/02/13 01:49:44;;;;;;;13.50;8.50;;;;;;;4.24;84.55;98219.92;226471;1275;22556;-76
2024/02/13 01:54:47;;;;;;;14.50;9.40;;;;;;;4.16;84.33;98222.11;226625;1274;22592;-77
2024/02/13 01:59:49;;;;;;;17.20;9.70;;;;;;;4.08;84.35;98229.61;226660;1271;22549;-76
2024/02/13 02:04:53;;;;;;;15.60;10.20;;;;;;;4.00;84.35;98230.17;226642;1274;24280;-75
2024/02/13 02:09:58;;;;;;;15.60;10.60;;;;;;;3.90;84.44;98223.29;226675;1273;22543;-76
2024/02/13 02:15:00;;;;;;;17.50;10.80;;;;;;;3.81;84.75;98228.21;226641;1269;22551;-77
2024/02/13 02:20:03;;;;;;;18.00;11.30;;;;;;;3.74;84.97;98235.58;226476;1274;22548;-76
2024/02/13 02:25:06;;;;;;;18.70;11.60;;;;;;;3.68;84.93;98241.27;226482;1274;22550;-76
2024/02/13 02:30:09;;;;;;;18.40;11.90;;;;;;;3.60;85.04;98240.88;226719;1275;22551;-77
2024/02/13 02:35:11;;;;;;;19.40;12.50;;;;;;;3.51;85.11;98243.38;226447;1275;25423;-77
2024/02/13 02:40:14;;;;;;;17.70;11.10;;;;;;;3.43;85.28;98248.88;226736;1274;22558;-77
2024/02/13 02:45:16;;;;;;;18.80;12.00;;;;;;;3.37;85.40;98246.90;226672;1275;22544;-77
2024/02/13 02:50:19;;;;;;;19.30;11.70;;;;;;;3.32;85.52;98245.81;226764;1271;22584;-76
2024/02/13 02:55:22;;;;;;;18.20;11.50;;;;;;;3.25;85.67;98251.98;226714;1271;24258;-77
2024/02/13 03:00:25;;;;;;;19.50;11.70;;;;;;;3.18;85.68;98254.77;226639;1273;24279;-76
2024/02/13 03:05:28;;;;;;;22.20;13.20;;;;;;;3.15;85.91;98259.71;226694;1275;22545;-76
2024/02/13 03:10:31;;;;;;;20.80;12.20;;;;;;;3.13;86.03;98269.16;226499;1258;22547;-76
2024/02/13 03:15:33;;;;;;;21.70;13.50;;;;;;;3.11;86.03;98274.98;226685;1275;22551;-75
2024/02/13 03:20:35;;;;;;;20.80;12.20;;;;;;;3.11;86.33;98280.48;226670;1271;22562;-75
2024/02/13 03:25:38;;;;;;;19.00;12.70;;;;;;;3.16;86.58;98287.26;226624;1274;22547;-77
2024/02/13 03:30:40;;;;;;;22.30;12.40;;;;;;;3.27;86.75;98295.42;226636;1272;22553;-76
2024/02/13 03:35:42;;;;;;;19.20;12.20;;;;;;;3.39;86.76;98298.20;226633;1274;22544;-77
2024/02/13 03:40:44;;;;;;;18.60;12.40;;;;;;;3.51;86.77;98307.74;226702;1273;24258;-76
2024/02/13 03:45:46;;;;;;;19.30;12.40;;;;;;;3.61;86.86;98317.03;226635;1274;22534;-76
2024/02/13 03:50:48;;;;;;;18.40;12.50;;;;;;;3.71;86.87;98322.15;226682;1274;22553;-76
2024/02/13 03:55:50;;;;;;;17.80;11.80;;;;;;;3.79;86.79;98325.33;226636;1275;24244;-76
2024/02/13 04:00:53;;;;;;;19.10;12.80;;;;;;;3.87;86.85;98332.17;226609;1271;22545;-76
2024/02/13 04:05:56;;;;;;;20.30;12.60;;;;;;;3.95;86.66;98333.04;226654;1274;23161;-76
2024/02/13 04:10:59;;;;;;;17.20;12.50;;;;;;;4.02;86.66;98345.43;226641;1270;22540;-76
2024/02/13 04:16:01;;;;;;;19.40;13.00;;;;;;;4.09;86.81;98356.06;226662;1274;22566;-77
2024/02/13 04:21:04;;;;;;;21.50;14.10;;;;;;;4.17;86.86;98362.29;226684;1274;22543;-77
2024/02/13 04:26:06;;;;;;;18.00;13.30;;;;;;;4.22;86.67;98370.35;226748;1275;22536;-77
2024/02/13 04:31:25;;;;;;;19.10;13.60;;;;;;;4.20;86.71;98378.24;226690;1269;22543;-77
2024/02/13 04:36:28;;;;;;;19.00;13.10;;;;;;;4.18;87.09;98381.92;226471;1274;24255;-76
2024/02/13 04:41:30;;;;;;;18.00;11.60;;;;;;;4.25;87.07;98389.95;226623;1273;22683;-77
2024/02/13 04:46:32;;;;;;;16.10;11.90;;;;;;;4.32;87.03;98393.03;226642;1274;24242;-77
2024/02/13 04:51:34;;;;;;;19.10;11.80;;;;;;;4.32;86.80;98397.45;226690;1274;22555;-77
2024/02/13 04:56:36;;;;;;;18.00;12.00;;;;;;;4.27;86.80;98410.13;226673;1275;25275;-77
2024/02/13 05:01:39;;;;;;;20.00;13.40;;;;;;;4.23;86.85;98419.39;226697;1267;22548;-77
2024/02/13 05:12:03;;;;;;;19.20;13.10;;;;;;;4.28;87.06;98432.48;226609;1275;22650;-77
2024/02/13 05:17:05;;;;;;;18.80;13.20;;;;;;;4.33;86.89;98435.08;226702;1272;22551;-76
2024/02/13 05:22:07;;;;;;;18.40;12.50;;;;;;;4.41;86.85;98441.98;226737;1272;22546;-76
2024/02/13 05:27:13;;;;;;;18.30;12.50;;;;;;;4.49;87.15;98446.88;226630;1275;22550;-77
2024/02/13 05:32:16;;;;;;;19.00;12.40;;;;;;;4.57;86.95;98458.89;226600;1273;22610;-77
2024/02/13 05:37:20;;;;;;;19.20;12.60;;;;;;;4.65;86.98;98462.89;226714;1271;22553;-77
2024/02/13 05:42:23;;;;;;;19.60;13.40;;;;;;;4.67;86.68;98475.53;226703;1272;22569;-78
2024/02/13 05:47:31;;;;;;;17.10;12.40;;;;;;;4.67;86.73;98480.83;226763;1274;22588;-77
2024/02/13 05:52:34;;;;;;;21.20;13.50;;;;;;;4.70;86.60;98497.20;226718;1275;22555;-78
2024/02/13 05:57:38;;;;;;;20.20;13.40;;;;;;;4.75;86.32;98505.72;226770;1275;22539;-76
2024/02/13 06:02:41;;;;;;;19.20;12.60;;;;;;;4.80;86.57;98515.84;226703;1272;24283;-77
2024/02/13 06:07:44;;;;;;;21.10;13.80;;;;;;;4.84;86.25;98525.91;226766;1273;22536;-77
2024/02/13 06:12:46;;;;;;;20.50;13.60;;;;;;;4.89;86.51;98539.02;226775;1272;22558;-77
2024/02/13 06:17:48;;;;;;;19.30;13.50;;;;;;;4.93;86.31;98551.30;226684;1273;22603;-77
2024/02/13 06:22:50;;;;;;;19.20;14.10;;;;;;;5.01;86.10;98557.39;226802;1275;22560;-76
2024/02/13 06:27:52;;;;;;;19.20;13.00;;;;;;;5.07;85.86;98565.61;226737;1271;22543;-77
2024/02/13 06:32:54;;;;;;;17.20;12.70;;;;;;;5.12;85.95;98573.98;226572;1275;22539;-78
2024/02/13 06:37:59;;;;;;;17.10;11.80;;;;;;;5.16;85.60;98582.67;226672;1275;22544;-79
2024/02/13 06:43:03;;;;;;;16.90;11.90;;;;;;;5.18;85.58;98588.03;226832;1275;22679;-77
2024/02/13 06:48:06;;;;;;;18.30;11.90;;;;;;;5.20;85.51;98595.66;226773;1272;22615;-76
2024/02/13 06:53:09;;;;;;;15.90;11.80;;;;;;;5.18;85.09;98602.82;226323;1262;22649;-77
2024/02/13 06:58:13;;;;;;;16.20;12.40;;;;;;;5.16;85.21;98611.45;226369;1256;22641;-77
2024/02/13 07:03:16;;;;;;;18.40;13.20;;;;;;;5.15;85.10;98618.68;226124;1254;23085;-80
2024/02/13 07:08:17;;;;;;;16.00;12.20;;;;;;;5.20;84.89;98633.69;226182;1268;22555;-80
2024/02/13 07:13:20;;;;;;;16.60;11.50;;;;;;;5.29;85.09;98640.80;226260;1252;22575;-77
2024/02/13 07:18:22;;;;;;;18.10;12.20;;;;;;;5.37;85.03;98646.48;226304;1256;22539;-78
2024/02/13 07:23:25;;;;;;;14.50;10.80;;;;;;;5.45;84.71;98646.48;226120;1274;24390;-78
2024/02/13 07:28:30;;;;;;;14.50;9.60;;;;;;;5.53;84.54;98652.14;226083;1260;22607;-78
2024/02/13 07:33:32;;;;;;;12.70;9.10;;;;;;;5.59;83.77;98660.42;226247;1257;22557;-80
2024/02/13 07:38:34;;;;;;;11.90;8.90;;;;;;;5.64;83.86;98664.55;226281;1272;22544;-78
2024/02/13 07:43:36;;;;;;;12.60;8.60;;;;;;;5.71;83.76;98665.46;226201;1270;22608;-76
2024/02/13 07:48:39;;;;;;;13.00;9.00;;;;;;;5.78;83.12;98673.52;226274;1269;25360;-77
2024/02/13 07:53:41;;;;;;;12.40;8.80;;;;;;;5.83;83.33;98678.00;225868;1261;22570;-77
2024/02/13 07:58:44;;;;;;;13.20;8.90;;;;;;;5.86;82.68;98676.11;226074;1270;22592;-76
2024/02/13 08:03:47;;;;;;;12.40;8.90;;;;;;;5.85;82.93;98680.38;225886;1263;22597;-77
2024/02/13 08:08:51;;;;;;;13.10;9.30;;;;;;;5.89;82.82;98686.13;226093;1267;22940;-76
2024/02/13 08:13:54;;;;;;;11.90;8.80;;;;;;;5.96;82.78;98686.27;226210;1274;22552;-77
2024/02/13 08:18:56;;;;;;;12.20;8.00;;;;;;;6.12;83.01;98687.73;226382;1274;22599;-78
2024/02/13 08:23:58;;;;;;;11.80;8.60;;;;;;;6.27;82.38;98693.82;226534;1260;22551;-78
2024/02/13 08:29:01;;;;;;;11.20;7.80;;;;;;;6.44;82.39;98694.12;226431;1260;22543;-77
2024/02/13 08:34:03;;;;;;;11.60;8.10;;;;;;;6.61;82.49;98697.01;226029;1267;22527;-78
2024/02/13 08:39:05;;;;;;;10.00;7.30;;;;;;;6.73;81.64;98700.24;226548;1257;22553;-78
2024/02/13 08:44:10;;;;;;;11.60;7.60;;;;;;;6.71;80.89;98698.63;226345;1263;22540;-78
2024/02/13 08:49:12;;;;;;;9.80;6.50;;;;;;;6.77;81.29;98704.88;226616;1267;22550;-78
2024/02/13 08:54:15;;;;;;;11.50;6.40;;;;;;;6.85;80.68;98708.60;226529;1273;22552;-78
2024/02/13 08:59:17;;;;;;;11.70;7.30;;;;;;;6.94;80.24;98714.02;226683;1272;22585;-78
2024/02/13 09:04:19;;;;;;;8.70;6.30;;;;;;;7.06;80.18;98714.52;226322;1275;23041;-78
2024/02/13 09:09:21;;;;;;;9.40;6.40;;;;;;;7.12;79.41;98713.98;226310;1273;22579;-82
2024/02/13 09:14:22;;;;;;;10.50;6.50;;;;;;;7.23;79.46;98716.48;226210;1267;22554;-76
2024/02/13 09:19:25;;;;;;;9.20;6.60;;;;;;;7.30;78.43;98723.00;225834;1267;786491;-78
2024/02/13 09:24:27;;;;;;;8.70;6.00;;;;;;;7.38;78.63;98725.84;226187;1275;22540;-79
2024/02/13 09:29:30;;;;;;;5.80;5.10;;;;;;;7.52;78.40;98732.59;226192;1275;22579;-80
2024/02/13 09:34:35;;;;;;;7.50;5.20;;;;;;;7.64;77.16;98737.81;226205;1275;22581;-79
2024/02/13 09:39:37;;;;;;;7.90;5.40;;;;;;;7.73;76.82;98742.64;225859;1276;22560;-80
2024/02/13 09:44:38;;;;;;;6.90;5.00;;;;;;;7.89;77.05;98744.50;225769;1276;22581;-78
2024/02/13 09:49:43;;;;;;;6.30;4.70;;;;;;;8.03;76.06;98749.11;225902;1267;22655;-80
2024/02/13 09:54:48;;;;;;;5.50;4.50;;;;;;;8.14;75.57;98757.99;226196;1273;25369;-78
2024/02/13 09:59:50;;;;;;;7.40;5.00;;;;;;;8.19;74.41;98755.16;226423;1274;22550;-80
2024/02/13 10:04:53;;;;;;;7.50;4.60;;;;;;;8.24;74.59;98761.27;226706;1270;25236;-79
2024/02/13 10:09:58;;;;;;;7.10;5.20;;;;;;;8.25;74.19;98762.87;226713;1273;22564;-79
2024/02/13 10:15:00;;;;;;;6.90;5.20;;;;;;;8.14;73.90;98761.48;226639;1270;22562;-79
2024/02/13 10:20:03;;;;;;;9.00;5.40;;;;;;;7.97;74.19;98769.37;226387;1275;25294;-80
2024/02/13 10:25:10;;;;;;;9.40;5.80;;;;;;;7.90;74.58;98771.40;226733;1275;22557;-79
2024/02/13 10:30:23;;;;;;;11.30;6.10;;;;;;;7.88;74.56;98779.35;226562;1275;22546;-79
2024/02/13 10:35:25;;;;;;;8.60;5.70;;;;;;;7.85;74.53;98778.30;226144;1274;22574;-80
2024/02/13 10:40:28;;;;;;;8.00;6.20;;;;;;;7.88;74.68;98780.77;226150;1276;23610;-79
2024/02/13 10:45:32;;;;;;;7.10;5.40;;;;;;;7.96;75.03;98779.27;226261;1273;22580;-80
2024/02/13 10:50:36;;;;;;;8.40;5.60;;;;;;;8.17;74.92;98784.73;226674;1271;22552;-77
2024/02/13 10:55:40;;;;;;;6.10;4.60;;;;;;;8.39;74.90;98778.48;226781;1275;22547;-77
2024/02/13 11:00:45;;;;;;;7.60;5.40;;;;;;;8.52;72.98;98792.44;226668;1273;22703;-78
2024/02/13 11:05:47;;;;;;;8.80;6.00;;;;;;;8.42;71.87;98797.81;226629;1251;23668;-77
2024/02/13 11:10:49;;;;;;;9.90;6.80;;;;;;;8.34;72.23;98805.02;226555;1257;22565;-79
2024/02/13 11:15:57;;;;;;;15.10;8.30;;;;;;;8.20;72.46;98807.63;226590;1274;22571;-78
2024/02/13 11:21:01;;;;;;;10.10;7.60;;;;;;;8.18;72.86;98811.45;226644;1273;22649;-78
2024/02/13 11:26:03;;;;;;;9.70;8.10;;;;;;;8.16;72.84;98815.53;226760;1275;22657;-78
2024/02/13 11:31:16;;;;;;;8.90;7.10;;;;;;;8.12;72.96;98823.14;226803;1272;22550;-78
2024/02/13 11:36:20;;;;;;;10.80;8.30;;;;;;;8.09;72.61;98823.31;226713;1270;22553;-78
2024/02/13 11:41:23;;;;;;;12.30;8.60;;;;;;;8.11;72.49;98823.56;226650;1267;25290;-78
2024/02/13 11:46:28;;;;;;;10.50;8.50;;;;;;;8.13;72.82;98831.59;226832;1274;22598;-78
2024/02/13 11:51:31;;;;;;;13.20;9.40;;;;;;;8.14;72.53;98829.71;226549;1263;22656;-78
2024/02/13 11:56:35;;;;;;;12.30;9.70;;;;;;;8.20;73.08;98832.98;226612;1275;22565;-78
2024/02/13 12:01:37;;;;;;;13.90;10.20;;;;;;;8.15;73.13;98836.28;226534;1274;22650;-79
2024/02/13 12:06:40;;;;;;;15.50;10.60;;;;;;;8.07;73.73;98843.84;226641;1267;22570;-78
2024/02/13 12:11:45;;;;;;;12.50;9.50;;;;;;;7.99;73.85;98845.05;226751;1275;22722;-78
2024/02/13 12:16:47;;;;;;;12.90;10.10;;;;;;;7.88;73.83;98849.00;226802;1267;22665;-78
2024/02/13 12:21:49;;;;;;;15.00;10.30;;;;;;;7.73;74.09;98848.88;226586;1275;22554;-80
2024/02/13 12:26:52;;;;;;;12.80;10.00;;;;;;;7.55;74.07;98854.70;226452;1270;22549;-79
2024/02/13 12:31:56;;;;;;;16.10;10.80;;;;;;;7.42;74.21;98859.33;226562;1267;22586;-79
2024/02/13 12:37:00;;;;;;;14.20;9.70;;;;;;;7.38;74.57;98863.80;226563;1270;22542;-81
2024/02/13 12:42:10;;;;;;;12.90;10.50;;;;;;;7.43;74.77;98861.73;226464;1254;24378;-81
2024/02/13 12:47:13;;;;;;;12.00;8.70;;;;;;;7.57;74.69;98870.14;226346;1261;22553;-81
2024/02/13 12:52:21;;;;;;;11.40;7.80;;;;;;;7.64;74.42;98881.04;226697;1275;22555;-80
2024/02/13 12:57:29;;;;;;;10.80;7.70;;;;;;;7.63;73.96;98879.10;226719;1272;24305;-81
2024/02/13 13:02:32;;;;;;;10.60;7.40;;;;;;;7.60;73.40;98876.30;226339;1261;22666;-81
2024/02/13 13:07:40;;;;;;;9.50;6.70;;;;;;;7.57;73.29;98878.16;226117;1270;22559;-80
2024/02/13 13:12:44;;;;;;;8.10;6.10;;;;;;;7.50;72.97;98875.77;226202;1263;23019;-80
2024/02/13 13:17:47;;;;;;;8.10;6.10;;;;;;;7.50;73.35;98883.66;226564;1275;25583;-78
2024/02/13 13:22:51;;;;;;;7.50;6.30;;;;;;;7.52;73.41;98882.05;226619;1275;23027;-78
2024/02/13 13:27:59;;;;;;;7.50;6.40;;;;;;;7.46;73.07;98889.38;226664;1275;22567;-77
2024/02/13 13:33:03;;;;;;;10.50;7.20;;;;;;;7.33;73.13;98892.80;226940;1271;22561;-78
2024/02/13 13:38:05;;;;;;;9.30;6.40;;;;;;;7.23;73.49;98906.14;226676;1271;22537;-78
2024/02/13 13:43:08;;;;;;;7.30;5.60;;;;;;;7.14;73.74;98914.86;226652;1272;22547;-78
2024/02/13 13:48:15;;;;;;;8.40;6.20;;;;;;;6.99;73.19;98921.73;226536;1267;24413;-78
2024/02/13 13:53:24;;;;;;;9.90;6.00;;;;;;;6.84;73.71;98919.97;226844;1271;22546;-80
2024/02/13 13:59:03;;;;;;;9.00;6.70;;;;;;;6.76;74.40;98921.39;226553;1267;22583;-79
2024/02/13 14:04:09;;;;;;;8.80;6.50;;;;;;;6.68;74.39;98928.09;226463;1274;22531;-81
2024/02/13 14:09:15;;;;;;;8.30;6.30;;;;;;;6.63;74.70;98941.05;226666;1275;22745;-82
2024/02/13 14:14:17;;;;;;;9.30;6.20;;;;;;;6.61;74.67;98952.80;226556;1274;22557;-80
2024/02/13 14:19:20;;;;;;;10.20;6.40;;;;;;;6.57;74.55;98959.02;226669;1270;22547;-78
2024/02/13 14:24:22;;;;;;;8.70;6.70;;;;;;;6.51;74.91;98961.98;226410;1267;25508;-77
2024/02/13 14:29:24;;;;;;;10.40;6.90;;;;;;;6.44;75.24;98967.54;226611;1267;24347;-79
2024/02/13 14:34:26;;;;;;;8.40;4.40;;;;;;;6.44;75.43;98970.02;226344;1258;22576;-82
2024/02/13 14:39:29;;;;;;;7.80;4.20;;;;;;;6.44;74.18;98982.23;226711;1255;22556;-81
2024/02/13 14:44:32;;;;;;;4.90;3.20;;;;;;;6.45;73.64;98987.61;226396;1259;22542;-81
2024/02/13 14:49:34;;;;;;;5.00;3.60;;;;;;;6.42;73.42;98989.27;226600;1255;22986;-82
2024/02/13 14:54:41;;;;;;;6.80;4.10;;;;;;;6.37;73.78;98998.73;226479;1261;22553;-84
2024/02/13 14:59:51;;;;;;;6.20;4.10;;;;;;;6.31;73.41;99008.17;226683;1271;22554;-82
2024/02/13 15:04:54;;;;;;;6.40;4.30;;;;;;;6.27;73.61;99009.72;226484;1274;22587;-82
2024/02/13 15:09:56;;;;;;;5.60;4.10;;;;;;;6.21;73.50;99011.23;226444;1273;22906;-82
2024/02/13 15:14:58;;;;;;;7.00;3.60;;;;;;;6.13;73.89;99014.81;226632;1274;22582;-83
2024/02/13 15:20:02;;;;;;;4.10;3.70;;;;;;;6.10;74.22;99017.05;226216;1275;22586;-82
2024/02/13 15:25:08;;;;;;;7.20;5.00;;;;;;;6.08;74.49;99028.41;226599;1275;22494;-83
2024/02/13 15:30:12;;;;;;;9.50;4.70;;;;;;;6.08;73.95;99031.61;226536;1271;22543;-82
2024/02/13 15:35:18;;;;;;;6.10;4.00;;;;;;;6.02;74.05;99042.45;226633;1274;22553;-83
2024/02/13 15:51:05;;;;;;;4.00;3.20;;;;;;;5.71;74.11;99063.00;226679;1275;22547;-82
2024/02/13 15:56:09;;;;;;;5.50;3.00;;;;;;;5.61;73.93;99072.16;226565;1274;22529;-81
2024/02/13 16:01:16;;;;;;;5.70;3.00;;;;;;;5.55;73.59;99075.78;226884;1275;22555;-82
2024/02/13 16:06:21;;;;;;;6.40;4.00;;;;;;;5.44;74.04;99084.20;226833;1252;22540;-80
2024/02/13 16:11:24;;;;;;;6.00;3.80;;;;;;;5.36;74.19;99092.64;226734;1274;22591;-83
2024/02/13 16:16:27;;;;;;;7.40;3.80;;;;;;;5.29;74.23;99103.07;226707;1274;22553;-82
2024/02/13 16:21:33;;;;;;;8.10;3.90;;;;;;;5.28;74.31;99107.70;226581;1275;25429;-82
2024/02/13 16:26:36;;;;;;;6.50;4.10;;;;;;;5.30;74.43;99107.20;226726;1275;22576;-83
2024/02/13 16:31:38;;;;;;;6.90;4.00;;;;;;;5.32;74.56;99110.47;226627;1274;22614;-81
2024/02/13 16:36:40;;;;;;;7.30;3.70;;;;;;;5.34;74.72;99113.83;226773;1271;22543;-83
2024/02/13 16:41:42;;;;;;;6.90;4.00;;;;;;;5.35;74.67;99118.43;226756;1271;25257;-81
2024/02/13 16:46:47;;;;;;;6.10;4.10;;;;;;;5.36;74.80;99119.15;226753;1259;22551;-82
2024/02/13 16:51:49;;;;;;;8.80;4.60;;;;;;;5.38;74.99;99126.33;226577;1274;22539;-82
2024/02/13 16:56:52;;;;;;;6.30;4.80;;;;;;;5.39;74.56;99131.00;226557;1275;22528;-80
2024/02/13 17:01:56;;;;;;;7.00;5.00;;;;;;;5.38;74.72;99137.37;226710;1273;22552;-83
2024/02/13 17:06:58;;;;;;;8.20;4.30;;;;;;;5.35;74.82;99145.00;226706;1273;22544;-83
2024/02/13 17:12:00;;;;;;;5.40;4.50;;;;;;;5.28;75.06;99146.60;226657;1275;22583;-82
2024/02/13 17:17:06;;;;;;;8.10;5.30;;;;;;;5.19;74.88;99150.02;226696;1271;22530;-83
2024/02/13 17:22:08;;;;;;;8.20;6.10;;;;;;;5.07;74.95;99150.20;226487;1275;24228;-82
2024/02/13 17:27:11;;;;;;;10.70;6.30;;;;;;;4.94;75.23;99148.30;226627;1275;22564;-84
2024/02/13 17:32:14;;;;;;;9.50;6.50;;;;;;;4.79;74.97;99152.99;226720;1274;23003;-83
2024/02/13 17:37:16;;;;;;;12.60;7.70;;;;;;;4.66;75.65;99156.33;226869;1271;22624;-83
2024/02/13 17:42:19;;;;;;;15.30;10.20;;;;;;;4.55;75.61;99158.06;226701;1272;22542;-81
2024/02/13 17:47:21;;;;;;;19.00;11.30;;;;;;;4.48;75.82;99164.56;226693;1271;22574;-82
2024/02/13 17:52:24;;;;;;;15.30;9.50;;;;;;;4.45;75.96;99158.49;226703;1273;22546;-81
2024/02/13 17:57:26;;;;;;;15.80;9.40;;;;;;;4.42;76.34;99154.59;226634;1274;22658;-82
2024/02/13 18:02:28;;;;;;;15.50;9.50;;;;;;;4.39;76.29;99164.23;226565;1271;22510;-82
2024/02/13 18:07:31;;;;;;;15.60;9.80;;;;;;;4.37;76.56;99167.94;226843;1273;22569;-83
2024/02/13 18:12:33;;;;;;;18.50;10.40;;;;;;;4.33;76.38;99169.50;226651;1273;22572;-82
2024/02/13 18:17:35;;;;;;;14.90;10.10;;;;;;;4.29;76.63;99172.66;226304;1275;22547;-82
2024/02/13 18:22:37;;;;;;;18.70;11.60;;;;;;;4.25;76.73;99174.73;226645;1271;22585;-82
2024/02/13 18:27:39;;;;;;;17.60;11.70;;;;;;;4.25;76.90;99169.66;226821;1272;22583;-82
2024/02/13 18:32:41;;;;;;;17.50;11.00;;;;;;;4.27;76.92;99179.98;226694;1273;22582;-82
2024/02/13 18:37:43;;;;;;;16.20;11.30;;;;;;;4.28;76.89;99179.36;226561;1274;22974;-82
2024/02/13 18:42:46;;;;;;;15.80;9.20;;;;;;;4.29;77.15;99182.22;226819;1275;22559;-82
2024/02/13 18:47:49;;;;;;;17.70;11.20;;;;;;;4.29;76.91;99185.44;226781;1264;22595;-83
2024/02/13 18:52:52;;;;;;;23.30;14.70;;;;;;;4.23;76.77;99191.27;226700;1275;22660;-81
2024/02/13 18:57:55;;;;;;;19.30;12.30;;;;;;;4.18;76.87;99193.81;226586;1274;22577;-82
2024/02/13 19:02:58;;;;;;;20.10;11.80;;;;;;;4.11;76.79;99200.60;226572;1275;23691;-83
2024/02/13 19:08:01;;;;;;;17.60;10.10;;;;;;;4.02;77.00;99210.48;226500;1274;22580;-83
2024/02/13 19:13:04;;;;;;;27.90;16.60;;;;;;;3.87;77.05;99222.59;226622;1273;22500;-82
2024/02/13 19:18:09;;;;;;;33.90;18.60;;;;;;;3.67;77.13;99228.52;226756;1275;22558;-82
2024/02/13 19:23:12;;;;;;;28.30;17.70;;;;;;;3.51;77.28;99229.02;226768;1274;22557;-81
2024/02/13 19:28:14;;;;;;;29.90;17.70;;;;;;;3.38;77.77;99225.34;226679;1274;23038;-80
2024/02/13 19:33:16;;;;;;;30.00;17.70;;;;;;;3.25;78.09;99233.95;226719;1273;22547;-81
2024/02/13 19:38:19;;;;;;;33.80;18.60;;;;;;;3.14;78.20;99242.63;226764;1273;22545;-84
2024/02/13 19:43:21;;;;;;;33.10;18.70;;;;;;;3.04;78.45;99248.91;226633;1274;22555;-82
2024/02/13 19:48:24;;;;;;;34.40;19.30;;;;;;;2.93;78.49;99253.88;226735;1273;24307;-83
2024/02/13 19:53:27;;;;;;;31.50;19.20;;;;;;;2.81;78.82;99251.33;226743;1271;22554;-82
2024/02/13 19:58:29;;;;;;;38.20;21.90;;;;;;;2.71;79.17;99258.13;226557;1273;22535;-83
2024/02/13 20:03:31;;;;;;;38.00;21.80;;;;;;;2.59;79.20;99263.17;226497;1275;22542;-83
2024/02/13 20:08:33;;;;;;;37.00;22.00;;;;;;;2.45;79.30;99262.89;226690;1274;22534;-80
2024/02/13 20:13:37;;;;;;;46.30;24.10;;;;;;;2.31;79.48;99263.16;226709;1273;25429;-83
2024/02/13 20:18:39;;;;;;;44.10;24.30;;;;;;;2.19;79.62;99267.98;226756;1271;22551;-83
2024/02/13 20:23:45;;;;;;;42.50;24.20;;;;;;;2.08;79.96;99268.30;226697;1274;24226;-81
2024/02/13 20:28:47;;;;;;;40.10;23.00;;;;;;;1.99;80.19;99268.86;226537;1251;22560;-81
2024/02/13 20:33:50;;;;;;;38.60;21.80;;;;;;;1.90;80.39;99268.20;226515;1275;22543;-82
2024/02/13 20:38:53;;;;;;;31.20;20.40;;;;;;;1.83;80.53;99267.52;226662;1273;23646;-82
2024/02/13 20:43:55;;;;;;;38.30;21.10;;;;;;;1.74;80.70;99264.79;226582;1274;22555;-81
2024/02/13 20:49:01;;;;;;;39.70;22.00;;;;;;;1.65;80.80;99267.01;226746;1272;22583;-81
2024/02/13 20:54:05;;;;;;;40.80;21.10;;;;;;;1.58;81.16;99264.48;226771;1275;22542;-83
2024/02/13 20:59:08;;;;;;;36.10;22.00;;;;;;;1.52;81.34;99267.20;226544;1275;22560;-82
2024/02/13 21:04:10;;;;;;;33.50;19.70;;;;;;;1.45;81.36;99270.87;226506;1275;24360;-82
2024/02/13 21:09:13;;;;;;;36.80;23.80;;;;;;;1.38;81.62;99276.02;226669;1274;22543;-82
2024/02/13 21:14:15;;;;;;;36.70;21.90;;;;;;;1.31;81.67;99272.44;226692;1275;22533;-84
2024/02/13 21:19:17;;;;;;;40.20;24.90;;;;;;;1.25;81.83;99274.51;226090;1275;588214;-81
2024/02/13 21:24:20;;;;;;;48.40;28.30;;;;;;;1.19;82.28;99282.21;226527;1275;22542;-83
2024/02/13 21:29:22;;;;;;;56.90;32.90;;;;;;;1.13;82.04;99278.34;226547;1275;22550;-81
2024/02/13 21:34:56;;;;;;;67.80;41.80;;;;;;;1.07;82.18;99280.04;226690;1252;22562;-83
2024/02/13 21:39:58;;;;;;;65.20;39.20;;;;;;;0.99;82.35;99277.98;226728;1274;22553;-82
2024/02/13 21:45:02;;;;;;;62.50;38.00;;;;;;;0.96;82.57;99285.18;226743;1275;22543;-82
2024/02/13 21:50:05;;;;;;;61.40;36.60;;;;;;;0.94;82.64;99284.98;226692;1274;23019;-82
2024/02/13 21:55:07;;;;;;;64.90;38.60;;;;;;;0.92;83.05;99290.52;226744;1275;22538;-83
2024/02/13 22:00:11;;;;;;;65.80;39.70;;;;;;;0.90;83.13;99291.73;226726;1275;22539;-82
2024/02/13 22:05:14;;;;;;;77.00;46.80;;;;;;;0.87;83.05;99289.02;226685;1274;22540;-82
2024/02/13 22:10:17;;;;;;;85.60;49.60;;;;;;;0.83;83.42;99293.83;226696;1275;22571;-82
2024/02/13 22:15:20;;;;;;;96.80;55.80;;;;;;;0.79;83.29;99295.16;226697;1271;22553;-83
2024/02/13 22:20:24;;;;;;;92.10;53.40;;;;;;;0.76;83.59;99300.23;226709;1274;22905;-81
2024/02/13 22:25:26;;;;;;;99.50;53.40;;;;;;;0.74;83.65;99307.38;226723;1274;22571;-82
2024/02/13 22:30:30;;;;;;;96.40;52.40;;;;;;;0.71;83.60;99320.04;226644;1274;22530;-82
2024/02/13 22:35:32;;;;;;;107.40;56.90;;;;;;;0.68;83.68;99323.71;226508;1275;22564;-83
2024/02/13 22:40:34;;;;;;;119.10;62.40;;;;;;;0.65;83.87;99328.74;226701;1274;22568;-84
2024/02/13 22:45:36;;;;;;;127.50;64.60;;;;;;;0.64;84.17;99325.55;226539;1275;24214;-83
2024/02/13 22:50:39;;;;;;;127.60;67.20;;;;;;;0.61;84.11;99327.97;226584;1274;22573;-82
2024/02/13 22:55:41;;;;;;;140.50;74.10;;;;;;;0.56;84.04;99330.30;226518;1275;22555;-80
2024/02/13 23:00:48;;;;;;;141.90;77.40;;;;;;;0.49;84.06;99337.70;226675;1274;22543;-82
2024/02/13 23:05:57;;;;;;;162.80;80.90;;;;;;;0.43;84.23;99335.22;226726;1274;22575;-82
2024/02/13 23:10:59;;;;;;;162.60;83.60;;;;;;;0.36;84.18;99334.16;226501;1274;22557;-83
2024/02/13 23:16:06;;;;;;;161.30;81.70;;;;;;;0.31;84.46;99332.06;226695;1275;22543;-83
2024/02/13 23:21:09;;;;;;;161.50;82.40;;;;;;;0.26;84.14;99335.10;226747;1273;22550;-83
2024/02/13 23:26:12;;;;;;;153.40;80.80;;;;;;;0.21;84.60;99331.59;226693;1275;24752;-83
2024/02/13 23:31:17;;;;;;;160.40;80.20;;;;;;;0.19;84.72;99340.74;226462;1274;22608;-82
2024/02/13 23:36:19;;;;;;;146.00;76.40;;;;;;;0.22;84.80;99345.23;226583;1275;22572;-82
2024/02/13 23:41:22;;;;;;;135.50;72.70;;;;;;;0.26;84.91;99347.54;226717;1275;22602;-82